| time (UTC) | temp F | wind direction | speed MPH | gust MPH | rain 1hr in | rain 24hr in | rain mn in | humidity % | barometer mb |
| 20260502151541 | 64 | 311 | 3.0 | 10.0 | 0.00 | 0.49 | 0.01 | 74 | 1022.6 |
| 20260502150109 | 63 | 343 | 4.0 | 10.0 | 0.00 | 0.49 | 0.01 | 75 | 1022.5 |
| 20260502123015 | 51 | 82 | 0.0 | 2.0 | 0.01 | 0.87 | 0.01 | 98 | 1020.9 |
| 20260502121536 | 50 | 298 | 0.0 | 2.0 | 0.00 | 0.86 | 0.00 | 98 | 1020.7 |
| 20260502120115 | 49 | 228 | 0.0 | 1.0 | 0.00 | 0.86 | 0.00 | 97 | 1020.5 |
| 20260502114609 | 49 | 219 | 0.0 | 1.0 | 0.00 | 0.92 | 0.00 | 97 | 1019.9 |
| 20260502113009 | 48 | 301 | 0.0 | 2.0 | 0.00 | 0.92 | 0.00 | 97 | 1019.8 |
| 20260502111529 | 49 | 159 | 0.0 | 1.0 | 0.00 | 0.92 | 0.00 | 97 | 1019.8 |
| 20260502110037 | 49 | 17 | 0.0 | 1.0 | 0.00 | 0.92 | 0.00 | 97 | 1019.7 |
| 20260502104513 | 49 | 17 | 0.0 | 0.0 | 0.00 | 0.98 | 0.00 | 97 | 1019.5 |
| 20260502103054 | 49 | 17 | 0.0 | 0.0 | 0.00 | 0.98 | 0.00 | 97 | 1019.3 |
| 20260502101546 | 49 | 17 | 0.0 | 0.0 | 0.00 | 0.98 | 0.00 | 97 | 1019.2 |
| 20260502091532 | 51 | 17 | 0.0 | 2.0 | 0.00 | 1.01 | 0.00 | 97 | 1018.8 |
| 20260502071501 | 52 | 7 | 1.0 | 3.0 | 0.00 | 1.01 | 0.00 | 97 | 1018.4 |
| 20260502070045 | 52 | 17 | 0.0 | 2.0 | 0.00 | 1.01 | 0.00 | 97 | 1018.3 |
| 20260502064558 | 52 | 17 | 0.0 | 2.0 | 0.00 | 1.03 | 0.00 | 96 | 1018.2 |
| 20260502063009 | 52 | 17 | 0.0 | 1.0 | 0.00 | 1.03 | 0.00 | 96 | 1018.3 |
| 20260502061521 | 52 | 17 | 0.0 | 1.0 | 0.00 | 1.03 | 0.00 | 96 | 1018.3 |
| 20260502060019 | 52 | 17 | 0.0 | 2.0 | 0.00 | 1.03 | 0.00 | 96 | 1018.0 |
| 20260502054548 | 52 | 17 | 0.0 | 1.0 | 0.00 | 1.05 | 0.00 | 96 | 1018.4 |
| 20260502053112 | 52 | 17 | 0.0 | 0.0 | 0.00 | 1.05 | 0.00 | 96 | 1018.3 |
| 20260502051515 | 53 | 17 | 0.0 | 2.0 | 0.00 | 1.05 | 0.00 | 96 | 1018.3 |
| 20260502050025 | 53 | 17 | 0.0 | 1.0 | 0.00 | 1.05 | 0.00 | 96 | 1018.4 |
| 20260502044536 | 52 | 17 | 0.0 | 2.0 | 0.00 | 1.06 | 1.05 | 96 | 1018.5 |
| 20260502043043 | 52 | 17 | 0.0 | 3.0 | 0.00 | 1.06 | 1.05 | 96 | 1018.6 |
| 20260502041546 | 52 | 351 | 0.0 | 3.0 | 0.00 | 1.06 | 1.05 | 96 | 1018.4 |
| 20260502040036 | 52 | 351 | 0.0 | 3.0 | 0.00 | 1.06 | 1.05 | 96 | 1018.6 |
| 20260502034513 | 52 | 357 | 1.0 | 4.0 | 0.00 | 1.07 | 1.05 | 95 | 1018.6 |
| 20260502033039 | 52 | 27 | 1.0 | 4.0 | 0.00 | 1.07 | 1.05 | 96 | 1018.3 |
| 20260502031534 | 52 | 40 | 1.0 | 5.0 | 0.00 | 1.07 | 1.05 | 96 | 1018.2 |
| 20260502030022 | 52 | 77 | 2.0 | 7.0 | 0.01 | 1.07 | 1.05 | 96 | 1017.6 |
| 20260502024514 | 52 | 61 | 1.0 | 4.0 | 0.02 | 1.07 | 1.05 | 95 | 1018.3 |
| 20260502023022 | 51 | 21 | 2.0 | 5.0 | 0.03 | 1.07 | 1.05 | 95 | 1018.3 |
| 20260502021534 | 52 | 34 | 3.0 | 10.0 | 0.05 | 1.07 | 1.05 | 95 | 1017.8 |
| 20260502020034 | 52 | 360 | 2.0 | 7.0 | 0.07 | 1.06 | 1.04 | 96 | 1017.3 |
| 20260502014545 | 52 | 29 | 3.0 | 9.0 | 0.08 | 1.07 | 1.04 | 96 | 1017.3 |
| 20260502013056 | 53 | 337 | 2.0 | 10.0 | 0.07 | 1.05 | 1.02 | 96 | 1017.6 |
| 20260502011510 | 53 | 341 | 1.0 | 5.0 | 0.06 | 1.03 | 1.00 | 95 | 1017.5 |
| 20260502010053 | 53 | 44 | 1.0 | 5.0 | 0.04 | 1.00 | 0.97 | 96 | 1016.9 |
| 20260502004558 | 53 | 66 | 1.0 | 5.0 | 0.03 | 0.99 | 0.96 | 95 | 1016.5 |
| 20260502003005 | 53 | 91 | 2.0 | 11.0 | 0.02 | 0.98 | 0.95 | 96 | 1016.3 |
| 20260502001506 | 53 | 38 | 2.0 | 5.0 | 0.02 | 0.97 | 0.94 | 96 | 1016.0 |
| 20260502000018 | 53 | 52 | 1.0 | 8.0 | 0.04 | 0.96 | 0.93 | 96 | 1015.3 |
| 20260501234534 | 53 | 31 | 5.0 | 14.0 | 0.07 | 0.96 | 0.93 | 96 | 1014.4 |
| 20260501233004 | 54 | 121 | 3.0 | 9.0 | 0.09 | 0.96 | 0.93 | 96 | 1014.4 |
| 20260501231512 | 54 | 341 | 1.0 | 10.0 | 0.08 | 0.95 | 0.92 | 96 | 1014.6 |
| 20260501230047 | 54 | 71 | 1.0 | 4.0 | 0.07 | 0.92 | 0.90 | 96 | 1014.9 |
| 20260501224511 | 54 | 17 | 1.0 | 4.0 | 0.06 | 0.89 | 0.86 | 95 | 1015.5 |
| 20260501223057 | 54 | 17 | 2.0 | 5.0 | 0.04 | 0.87 | 0.84 | 95 | 1015.3 |
| 20260501221519 | 55 | 12 | 1.0 | 5.0 | 0.05 | 0.87 | 0.84 | 95 | 1015.4 |
| 20260501220050 | 55 | 83 | 0.0 | 9.0 | 0.07 | 0.85 | 0.82 | 95 | 1015.1 |
| 20260501214540 | 55 | 29 | 3.0 | 9.0 | 0.07 | 0.83 | 0.80 | 95 | 1014.2 |
| 20260501213018 | 55 | 337 | 2.0 | 10.0 | 0.09 | 0.83 | 0.80 | 95 | 1014.2 |
| 20260501211557 | 54 | 61 | 2.0 | 8.0 | 0.09 | 0.82 | 0.79 | 95 | 1014.4 |
| 20260501210030 | 54 | 93 | 2.0 | 8.0 | 0.05 | 0.78 | 0.76 | 94 | 1014.9 |
| 20260501204612 | 55 | 39 | 3.0 | 9.0 | 0.03 | 0.76 | 0.73 | 93 | 1015.1 |
| 20260501204505 | 55 | 352 | 2.0 | 9.0 | 0.03 | 0.76 | 0.73 | 93 | 1015.2 |
| 20260501203058 | 55 | 17 | 3.0 | 9.0 | 0.01 | 0.74 | 0.71 | 92 | 1014.9 |
| 20260501201521 | 55 | 25 | 4.0 | 9.0 | 0.00 | 0.73 | 0.70 | 93 | 1014.7 |
| 20260501200049 | 55 | 86 | 2.0 | 11.0 | 0.00 | 0.73 | 0.70 | 93 | 1014.3 |
| 20260501194532 | 56 | 34 | 4.0 | 11.0 | 0.00 | 0.76 | 0.70 | 93 | 1013.4 |
| 20260501193011 | 56 | 74 | 5.0 | 14.0 | 0.00 | 0.76 | 0.70 | 94 | 1012.7 |
| 20260501191546 | 56 | 100 | 4.0 | 16.0 | 0.00 | 0.76 | 0.70 | 94 | 1012.4 |
| 20260501190013 | 57 | 61 | 4.0 | 12.0 | 0.00 | 0.76 | 0.70 | 94 | 1012.0 |
| 20260501184540 | 57 | 50 | 5.0 | 14.0 | 0.01 | 0.76 | 0.70 | 95 | 1011.8 |
| 20260501183023 | 57 | 42 | 5.0 | 13.0 | 0.01 | 0.76 | 0.70 | 96 | 1013.3 |
| 20260501181508 | 56 | 46 | 3.0 | 10.0 | 0.02 | 0.76 | 0.70 | 95 | 1014.5 |
| 20260501180056 | 56 | 41 | 3.0 | 12.0 | 0.02 | 0.76 | 0.70 | 96 | 1015.0 |
| 20260501174506 | 56 | 76 | 3.0 | 8.0 | 0.02 | 1.10 | 0.69 | 96 | 1015.0 |
| 20260501173041 | 56 | 7 | 3.0 | 7.0 | 0.04 | 1.10 | 0.69 | 96 | 1015.3 |
| 20260501171600 | 56 | 29 | 3.0 | 9.0 | 0.04 | 1.09 | 0.68 | 96 | 1016.0 |
| 20260501170025 | 56 | 12 | 5.0 | 11.0 | 0.03 | 1.08 | 0.67 | 96 | 1016.3 |
| 20260501164507 | 57 | 85 | 1.0 | 6.0 | 0.05 | 1.08 | 0.67 | 96 | 1016.3 |
| 20260501163034 | 56 | 38 | 2.0 | 12.0 | 0.04 | 1.06 | 0.65 | 96 | 1016.8 |
| 20260501161511 | 56 | 17 | 4.0 | 11.0 | 0.05 | 1.05 | 0.64 | 96 | 1016.9 |
| 20260501160048 | 56 | 352 | 4.0 | 12.0 | 0.07 | 1.05 | 0.64 | 97 | 1016.8 |
| 20260501154516 | 56 | 48 | 3.0 | 7.0 | 0.09 | 1.04 | 0.62 | 96 | 1016.2 |
| 20260501153054 | 56 | 51 | 3.0 | 8.0 | 0.11 | 1.03 | 0.61 | 97 | 1016.1 |